Terminal Aerodrome Forecast
Issued by NWS Duluth, MN

Home | Current Version | Previous Version | Text Only | Print | Product List | Glossary On
Versions: 1 2 3 4 5 6 7 8 9 10 11 12 13 14 15 16 17 18 19 20
000
FTUS43 KDLH 042338
TAFINL
TAF
KINL 042338Z 0500/0524 14008KT P6SM VCTS SCT030 BKN050CB
     FM050200 15006KT P6SM VCTS SCT030 OVC060CB
     FM050800 16007KT 3SM BR VCSH FEW002 OVC100
     FM051600 17010KT P6SM SCT035 BKN100
     FM052000 18010G17KT P6SM VCSH OVC050=

USA.gov is the U.S. government's official web portal to all federal, state and local government web resources and services.